Aqualeader — A8ZC4 — position and weather

sailwx.info

Track history (hours):
 
Tides and Currents Weather Stations Pressure Air Temp Water Temp Dewpoint Dewpoint Depression Visibility Wind Speed Wind Dir Waves Ship Positions

Aqualeader

Last reported at 2017-Sep-19 23:13 UTC. Time now 2017-Oct-18 15:16 UTC.
Position N 29°03' W 116°38'.
Warning: this ship's position is 28 days out of date.

Length 249 m; draft 8.3 m.

Type: Tanker. MMSI: 636015175.

Date/timePositionNaut miles runAvg speedWind from/ knotsBaromVisibWave heightAir tempDewpointWater temp
2017-Sep-19 23:13N 29°03' W 116°38'2414.3
2017-Sep-19 21:32N 29°27' W 116°44'014.4
2017-Sep-19 21:31N 29°27' W 116°44'11114.6
2017-Sep-19 13:56N 31°15' W 117°16'2715.3
2017-Sep-19 12:10N 31°41' W 117°23'1015.3
2017-Sep-19 11:30N 31°51' W 117°25'715.1
2017-Sep-19 11:00N 31°58' W 117°27'714.6
2017-Sep-19 10:31N 32°05' W 117°30'914.4
2017-Sep-19 09:54N 32°14' W 117°32'614.3
2017-Sep-19 09:31N 32°19' W 117°34'713.2
2017-Sep-19 09:00N 32°25' W 117°35'612.3
2017-Sep-19 08:30N 32°31' W 117°37'612.3
2017-Sep-19 08:00N 32°37' W 117°40'714.0
2017-Sep-19 07:31N 32°43' W 117°44'714.3
2017-Sep-19 07:00N 32°50' W 117°47'714.4
2017-Sep-19 06:31N 32°56' W 117°51'714.4
2017-Sep-19 06:00N 33°02' W 117°56'714.7
2017-Sep-19 05:30N 33°09' W 117°60'714.5
2017-Sep-19 05:00N 33°15' W 118°04'612.0
2017-Sep-19 04:31N 33°21' W 118°07'510.8
2017-Sep-19 04:00N 33°26' W 118°09'511.0
2017-Sep-19 03:30N 33°31' W 118°11'510.4
2017-Sep-19 03:00N 33°36' W 118°14'611.2
2017-Sep-19 02:30N 33°36' W 118°21'511.2
2017-Sep-19 02:01N 33°39' W 118°26'510.1
2017-Sep-19 01:30N 33°43' W 118°30'611.2
2017-Sep-19 01:01N 33°49' W 118°30'510.8
2017-Sep-19 00:31N 33°54' W 118°30'  
2017-Sep-16 17:35N 33°54' W 118°27'0 0.7
2017-Sep-16 17:30N 33°54' W 118°27'1 1.6
2017-Sep-16 17:00N 33°53' W 118°27'1 2.4
2017-Sep-16 16:28N 33°53' W 118°29'0 0.7
2017-Sep-16 16:00N 33°53' W 118°29'0 0.0
2017-Sep-16 13:58N 33°53' W 118°29'0 0.1
2017-Sep-16 13:16N 33°53' W 118°29'0 0.1
2017-Sep-16 12:55N 33°53' W 118°29'0 0.1
2017-Sep-16 12:22N 33°53' W 118°29'0 0.0
2017-Sep-16 11:40N 33°53' W 118°29'0 0.0
2017-Sep-16 09:49N 33°53' W 118°29'0 0.0
2017-Sep-16 02:46N 33°53' W 118°29'0 0.0
2017-Sep-15 23:19N 33°53' W 118°29'0 0.0
2017-Sep-15 08:58N 33°53' W 118°29'0 0.0
2017-Sep-15 08:28N 33°53' W 118°29'0 0.0
2017-Sep-14 20:22N 33°53' W 118°29'0 0.2
2017-Sep-14 20:01N 33°53' W 118°29'1 2.6
2017-Sep-14 19:30N 33°52' W 118°29'4 7.1
2017-Sep-14 18:57N 33°48' W 118°29'4 8.1
2017-Sep-14 18:30N 33°44' W 118°29'5 9.5
2017-Sep-14 18:00N 33°41' W 118°25'5 9.9
2017-Sep-14 17:31N 33°38' W 118°20'5 9.9
2017-Sep-14 17:01N 33°38' W 118°14'5 9.5
2017-Sep-14 16:30N 33°35' W 118°10'510.2
2017-Sep-14 16:00N 33°31' W 118°07'510.3
2017-Sep-14 15:30N 33°26' W 118°05'510.5
2017-Sep-14 15:00N 33°21' W 118°03'510.7
2017-Sep-14 14:30N 33°16' W 118°01'611.5
2017-Sep-14 14:01N 33°11' W 117°58'611.6
2017-Sep-14 13:30N 33°05' W 117°55'611.7
2017-Sep-14 13:01N 33°00' W 117°52'611.6
2017-Sep-14 12:30N 32°55' W 117°49'611.3
2017-Sep-14 12:01N 32°50' W 117°46'611.5
2017-Sep-14 11:30N 32°45' W 117°42'510.4
2017-Sep-14 11:00N 32°40' W 117°40'2 4.6
2017-Sep-14 10:30N 32°38' W 117°39'510.5
2017-Sep-14 10:00N 32°33' W 117°38'612.0
2017-Sep-14 09:31N 32°27' W 117°36'611.9
2017-Sep-14 09:00N 32°21' W 117°35'611.8
2017-Sep-14 08:30N 32°16' W 117°33'611.9
2017-Sep-14 07:58N 32°09' W 117°31'  
Track history (hours):
 
Tides and Currents Weather Stations Pressure Air Temp Water Temp Dewpoint Dewpoint Depression Visibility Wind Speed Wind Dir Waves Ship Positions

Aqualeader

Last reported at 2017-Sep-19 23:13 UTC. Time now 2017-Oct-18 15:16 UTC.
Position N 29°03' W 116°38'.
Warning: this ship's position is 28 days out of date.

Length 249 m; draft 8.3 m.

Type: Tanker. MMSI: 636015175.

Date/timePositionNaut miles runAvg speedWind from/ knotsBaromVisibWave heightAir tempDewpointWater temp
2017-Sep-19 23:13N 29°03' W 116°38'2414.3
2017-Sep-19 21:32N 29°27' W 116°44'014.4
2017-Sep-19 21:31N 29°27' W 116°44'11114.6
2017-Sep-19 13:56N 31°15' W 117°16'2715.3
2017-Sep-19 12:10N 31°41' W 117°23'1015.3
2017-Sep-19 11:30N 31°51' W 117°25'715.1
2017-Sep-19 11:00N 31°58' W 117°27'714.6
2017-Sep-19 10:31N 32°05' W 117°30'914.4
2017-Sep-19 09:54N 32°14' W 117°32'614.3
2017-Sep-19 09:31N 32°19' W 117°34'713.2
2017-Sep-19 09:00N 32°25' W 117°35'612.3
2017-Sep-19 08:30N 32°31' W 117°37'612.3
2017-Sep-19 08:00N 32°37' W 117°40'714.0
2017-Sep-19 07:31N 32°43' W 117°44'714.3
2017-Sep-19 07:00N 32°50' W 117°47'714.4
2017-Sep-19 06:31N 32°56' W 117°51'714.4
2017-Sep-19 06:00N 33°02' W 117°56'714.7
2017-Sep-19 05:30N 33°09' W 117°60'714.5
2017-Sep-19 05:00N 33°15' W 118°04'612.0
2017-Sep-19 04:31N 33°21' W 118°07'510.8
2017-Sep-19 04:00N 33°26' W 118°09'511.0
2017-Sep-19 03:30N 33°31' W 118°11'510.4
2017-Sep-19 03:00N 33°36' W 118°14'611.2
2017-Sep-19 02:30N 33°36' W 118°21'511.2
2017-Sep-19 02:01N 33°39' W 118°26'510.1
2017-Sep-19 01:30N 33°43' W 118°30'611.2
2017-Sep-19 01:01N 33°49' W 118°30'510.8
2017-Sep-19 00:31N 33°54' W 118°30'  
2017-Sep-16 17:35N 33°54' W 118°27'0 0.7
2017-Sep-16 17:30N 33°54' W 118°27'1 1.6
2017-Sep-16 17:00N 33°53' W 118°27'1 2.4
2017-Sep-16 16:28N 33°53' W 118°29'0 0.7
2017-Sep-16 16:00N 33°53' W 118°29'0 0.0
2017-Sep-16 13:58N 33°53' W 118°29'0 0.1
2017-Sep-16 13:16N 33°53' W 118°29'0 0.1
2017-Sep-16 12:55N 33°53' W 118°29'0 0.1
2017-Sep-16 12:22N 33°53' W 118°29'0 0.0
2017-Sep-16 11:40N 33°53' W 118°29'0 0.0
2017-Sep-16 09:49N 33°53' W 118°29'0 0.0
2017-Sep-16 02:46N 33°53' W 118°29'0 0.0
2017-Sep-15 23:19N 33°53' W 118°29'0 0.0
2017-Sep-15 08:58N 33°53' W 118°29'0 0.0
2017-Sep-15 08:28N 33°53' W 118°29'0 0.0
2017-Sep-14 20:22N 33°53' W 118°29'0 0.2
2017-Sep-14 20:01N 33°53' W 118°29'1 2.6
2017-Sep-14 19:30N 33°52' W 118°29'4 7.1
2017-Sep-14 18:57N 33°48' W 118°29'4 8.1
2017-Sep-14 18:30N 33°44' W 118°29'5 9.5
2017-Sep-14 18:00N 33°41' W 118°25'5 9.9
2017-Sep-14 17:31N 33°38' W 118°20'5 9.9
2017-Sep-14 17:01N 33°38' W 118°14'5 9.5
2017-Sep-14 16:30N 33°35' W 118°10'510.2
2017-Sep-14 16:00N 33°31' W 118°07'510.3
2017-Sep-14 15:30N 33°26' W 118°05'510.5
2017-Sep-14 15:00N 33°21' W 118°03'510.7
2017-Sep-14 14:30N 33°16' W 118°01'611.5
2017-Sep-14 14:01N 33°11' W 117°58'611.6
2017-Sep-14 13:30N 33°05' W 117°55'611.7
2017-Sep-14 13:01N 33°00' W 117°52'611.6
2017-Sep-14 12:30N 32°55' W 117°49'611.3
2017-Sep-14 12:01N 32°50' W 117°46'611.5
2017-Sep-14 11:30N 32°45' W 117°42'510.4
2017-Sep-14 11:00N 32°40' W 117°40'2 4.6
2017-Sep-14 10:30N 32°38' W 117°39'510.5
2017-Sep-14 10:00N 32°33' W 117°38'612.0
2017-Sep-14 09:31N 32°27' W 117°36'611.9
2017-Sep-14 09:00N 32°21' W 117°35'611.8
2017-Sep-14 08:30N 32°16' W 117°33'611.9
2017-Sep-14 07:58N 32°09' W 117°31'  

Dump ship's entire track history